map of GIG home
Great Circle Mapper logo
GIG - Airport
Location
City:  Rio de Janeiro, Rio de Janeiro, Brazil
Name:Galeão - Antônio Carlos (Tom) Jobim International Airport
ICAO / IATA:SBGL / GIG

Details
Type:Airport (Aerodrome, Airfield)
Use:Public/Civil, Military, International (customs port of entry)
Latitude:22°48'32"S (-22.808902)
Longitude:43°14'37"W (-43.243646)
Datum:WGS 1984
Elevation:28 ft (9 m)
Runways:2
Longest:13123 × 148 ft (4000 × 45 m), paved

Time
Time Zone:UTC-3 (DST-2)
Local Time:

Weather
METAR:SBGL 312005Z 08018G30KT 9999 VCSH BKN025 FEW030TCU 30/15 Q1010

Related Locations
Nearby:
Farthest:IWO: 12124 mi / 19512 km
Iwo Jima [Iwo Jima AB], Iwo Jima Island, JP

Find:

   beyond  
but within

Other Information
Maps:
NOTAMs:
Links:
Sources:

  
flag of Brazil
flag of Rio de Janeiro
flag of Rio de Janeiro
  

Airport Diagram

Airport diagram for GIG

Airport diagram (OBSOLETE) from NGA

Sectional Chart

Flight Planning
at skyvector.com

Satellite Image

Google Maps Satellite View

 

Copyright © 2004-2014 Karl L. Swartz. All rights reserved.
The Great Circle Mapper name and logo are trademarks of the Great Circle Mapper.
All other trademarks mentioned herein belong to their respective owners.
Please see credits for attibutions and further copyright information.

  Follow gcmap on Facebook Follow gcmap on Twitter

hCard Microformat

Geo Microformat